createdAt,value
2019-03-29T00:00:46.484Z,6.00
2019-03-29T00:03:12.278Z,6.37
2019-03-29T00:05:38.063Z,6.50
2019-03-29T00:08:03.857Z,6.40
2019-03-29T00:10:29.660Z,6.13
2019-03-29T00:12:55.466Z,6.73
2019-03-29T00:15:21.251Z,6.73
2019-03-29T00:17:47.032Z,6.70
2019-03-29T00:20:12.857Z,6.53
2019-03-29T00:22:38.649Z,6.90
2019-03-29T00:25:05.065Z,6.67
2019-03-29T00:27:30.872Z,5.80
2019-03-29T00:29:56.648Z,6.40
2019-03-29T00:32:22.447Z,6.77
2019-03-29T00:34:48.250Z,6.67
2019-03-29T00:37:14.067Z,5.33
2019-03-29T00:39:40.317Z,6.23
2019-03-29T00:42:06.902Z,6.13
2019-03-29T00:44:32.679Z,7.03
2019-03-29T00:46:58.477Z,6.13
2019-03-29T00:49:24.264Z,6.47
2019-03-29T00:51:50.948Z,6.07
2019-03-29T00:54:16.871Z,6.23
2019-03-29T00:56:42.667Z,6.70
2019-03-29T00:59:08.448Z,6.20
2019-03-29T01:01:34.244Z,6.20
2019-03-29T01:04:00.028Z,6.27
2019-03-29T01:06:25.818Z,6.60
2019-03-29T01:08:52.016Z,6.97
2019-03-29T01:11:17.814Z,6.93
2019-03-29T01:13:43.590Z,6.33
2019-03-29T01:16:09.377Z,7.10
2019-03-29T01:18:35.165Z,7.40
2019-03-29T01:21:01.016Z,7.40
2019-03-29T01:23:26.857Z,7.63
2019-03-29T01:25:52.636Z,7.43
2019-03-29T01:28:18.426Z,8.37
2019-03-29T01:30:44.200Z,8.13
2019-03-29T01:33:10.002Z,7.90
2019-03-29T01:35:36.099Z,7.80
2019-03-29T01:38:02.082Z,7.90
2019-03-29T01:40:27.865Z,8.37
2019-03-29T01:42:53.669Z,8.87
2019-03-29T01:45:20.050Z,8.77
2019-03-29T01:47:45.856Z,8.27
2019-03-29T01:50:11.732Z,8.90
2019-03-29T01:52:37.529Z,8.13
2019-03-29T01:55:04.911Z,8.40
2019-03-29T01:57:30.715Z,8.13
2019-03-29T01:59:56.492Z,7.93
2019-03-29T02:02:22.278Z,8.93
2019-03-29T02:04:48.075Z,8.10
2019-03-29T02:07:13.849Z,8.30
2019-03-29T02:09:39.647Z,8.33
2019-03-29T02:12:06.320Z,8.63
2019-03-29T02:14:35.437Z,8.47
2019-03-29T02:17:01.229Z,8.67
2019-03-29T02:19:27.062Z,9.10
2019-03-29T02:21:52.806Z,8.83
2019-03-29T02:24:18.619Z,8.97
2019-03-29T02:26:44.393Z,8.37
2019-03-29T02:29:10.954Z,8.80
2019-03-29T02:31:36.884Z,8.37
2019-03-29T02:34:02.669Z,8.80
2019-03-29T02:36:28.457Z,8.40
2019-03-29T02:38:56.223Z,8.87
2019-03-29T02:41:21.957Z,7.70
2019-03-29T02:43:47.758Z,9.20
2019-03-29T02:46:13.525Z,8.43
2019-03-29T02:48:39.318Z,7.90
2019-03-29T02:51:05.287Z,8.30
2019-03-29T02:53:31.227Z,8.33
2019-03-29T02:55:57.078Z,8.53
2019-03-29T02:58:22.897Z,8.83
2019-03-29T03:00:48.778Z,8.43
2019-03-29T03:03:14.556Z,8.90
2019-03-29T03:05:40.349Z,9.13
2019-03-29T03:08:06.123Z,9.30
2019-03-29T03:10:31.921Z,8.97
2019-03-29T03:12:57.736Z,8.77
2019-03-29T03:15:23.510Z,9.70
2019-03-29T03:17:49.286Z,9.03
2019-03-29T03:20:15.992Z,9.20
2019-03-29T03:22:41.981Z,10.93
2019-03-29T03:25:08.096Z,10.63
2019-03-29T03:27:34.379Z,10.67
2019-03-29T03:30:00.442Z,11.37
2019-03-29T03:32:26.368Z,12.57
2019-03-29T03:34:52.160Z,12.30
2019-03-29T03:37:17.931Z,13.57
2019-03-29T03:39:43.732Z,14.07
2019-03-29T03:42:09.517Z,14.80
2019-03-29T03:44:35.315Z,15.80
2019-03-29T03:47:01.099Z,16.50
2019-03-29T03:49:26.904Z,17.50
2019-03-29T03:51:52.684Z,17.63
2019-03-29T03:54:18.464Z,18.40
2019-03-29T03:56:44.852Z,18.33
2019-03-29T03:59:10.833Z,18.67
2019-03-29T04:01:36.624Z,20.83
2019-03-29T04:04:02.417Z,20.57
2019-03-29T04:06:28.197Z,20.53
2019-03-29T04:08:53.976Z,21.30
2019-03-29T04:11:19.771Z,20.17
2019-03-29T04:13:45.547Z,20.63
2019-03-29T04:16:11.365Z,20.47
2019-03-29T04:18:37.241Z,22.37
2019-03-29T04:21:03.044Z,21.73
2019-03-29T04:23:28.818Z,21.33
2019-03-29T04:25:54.727Z,21.33
2019-03-29T04:28:20.509Z,22.00
2019-03-29T04:30:46.301Z,21.37
2019-03-29T04:33:12.090Z,21.80
2019-03-29T04:35:37.878Z,20.67
2019-03-29T04:38:03.675Z,19.90
2019-03-29T04:40:29.487Z,22.07
2019-03-29T04:42:56.085Z,21.53
2019-03-29T04:45:21.867Z,20.00
2019-03-29T04:47:47.661Z,21.33
2019-03-29T04:50:13.446Z,21.40
2019-03-29T04:52:39.251Z,20.73
2019-03-29T04:55:05.245Z,21.10
2019-03-29T04:57:31.037Z,21.20
2019-03-29T04:59:56.831Z,21.43
2019-03-29T05:02:22.648Z,19.83
2019-03-29T05:04:48.430Z,20.07
2019-03-29T05:07:14.225Z,19.17
2019-03-29T05:09:40.019Z,19.97
2019-03-29T05:12:05.923Z,20.07
2019-03-29T05:14:31.698Z,20.17
2019-03-29T05:16:57.597Z,20.40
2019-03-29T05:19:23.375Z,18.33
2019-03-29T05:21:49.175Z,18.70
2019-03-29T05:24:14.945Z,19.23
2019-03-29T05:26:40.763Z,20.43
2019-03-29T05:29:06.540Z,19.60
2019-03-29T05:31:32.327Z,20.80
2019-03-29T05:33:58.120Z,20.17
2019-03-29T05:36:23.916Z,20.23
2019-03-29T05:38:49.706Z,19.77
2019-03-29T05:41:15.496Z,19.80
2019-03-29T05:43:41.301Z,20.13
2019-03-29T05:46:07.072Z,20.20
2019-03-29T05:48:32.879Z,20.23
2019-03-29T05:50:58.659Z,19.63
2019-03-29T05:53:24.469Z,19.83
2019-03-29T05:55:50.249Z,19.30
2019-03-29T05:58:16.041Z,20.13
2019-03-29T06:00:41.844Z,20.37
2019-03-29T06:03:10.029Z,20.47
2019-03-29T06:05:35.422Z,20.10
2019-03-29T06:08:01.208Z,19.57
2019-03-29T06:10:26.988Z,20.57
2019-03-29T06:12:52.800Z,20.63
2019-03-29T06:15:18.693Z,21.33
2019-03-29T06:17:48.944Z,19.60
2019-03-29T06:20:12.325Z,22.73
2019-03-29T06:22:38.111Z,21.77
2019-03-29T06:25:05.365Z,21.80
2019-03-29T06:27:31.218Z,20.40
2019-03-29T06:29:57.011Z,21.33
2019-03-29T06:32:22.904Z,20.67
2019-03-29T06:34:48.698Z,26.93
2019-03-29T06:37:15.784Z,26.83
2019-03-29T06:39:41.997Z,21.40
2019-03-29T06:42:07.899Z,21.57
2019-03-29T06:44:33.691Z,21.87
2019-03-29T06:46:59.555Z,21.30
2019-03-29T06:49:25.405Z,21.57
2019-03-29T06:51:51.166Z,21.00
2019-03-29T06:54:16.959Z,22.17
2019-03-29T06:56:42.739Z,21.10
2019-03-29T06:59:08.537Z,21.83
2019-03-29T07:01:34.321Z,21.10
2019-03-29T07:04:00.130Z,20.60
2019-03-29T07:06:25.922Z,21.07
2019-03-29T07:08:51.704Z,21.40
2019-03-29T07:11:18.193Z,21.03
2019-03-29T07:13:56.711Z,20.07
2019-03-29T07:16:11.825Z,20.00
2019-03-29T07:18:37.603Z,21.53
2019-03-29T07:21:03.407Z,20.33
2019-03-29T07:23:29.183Z,19.53
2019-03-29T07:25:56.570Z,19.60
2019-03-29T07:28:22.472Z,20.27
2019-03-29T07:30:48.267Z,19.37
2019-03-29T07:33:14.203Z,19.37
2019-03-29T07:35:39.961Z,19.33
2019-03-29T07:38:05.734Z,16.93
2019-03-29T07:40:31.531Z,18.63
2019-03-29T07:42:57.323Z,18.07
2019-03-29T07:45:23.142Z,17.47
2019-03-29T07:47:48.925Z,18.20
2019-03-29T07:50:14.721Z,18.57
2019-03-29T07:52:40.501Z,16.60
2019-03-29T07:55:06.697Z,16.53
2019-03-29T07:57:32.485Z,16.07
2019-03-29T07:59:58.295Z,15.40
2019-03-29T08:02:24.089Z,15.27
2019-03-29T08:04:50.469Z,15.97
2019-03-29T08:07:27.097Z,15.73
2019-03-29T08:09:44.886Z,15.60
2019-03-29T08:12:10.658Z,15.30
2019-03-29T08:14:36.443Z,16.43
2019-03-29T08:17:02.241Z,15.00
2019-03-29T08:19:28.029Z,14.80
2019-03-29T08:21:53.833Z,15.80
2019-03-29T08:24:19.604Z,16.43
2019-03-29T08:26:45.481Z,16.23
2019-03-29T08:29:11.291Z,16.13
2019-03-29T08:31:37.092Z,16.53
2019-03-29T08:34:02.899Z,18.27
2019-03-29T08:36:28.691Z,17.13
2019-03-29T08:38:54.464Z,17.10
2019-03-29T08:41:20.273Z,17.07
2019-03-29T08:43:46.061Z,19.93
2019-03-29T08:46:11.851Z,22.10
2019-03-29T08:48:37.646Z,20.87
2019-03-29T08:51:03.435Z,20.80
2019-03-29T08:53:29.238Z,21.90
2019-03-29T08:55:55.054Z,21.03
2019-03-29T08:58:20.835Z,20.27
2019-03-29T09:00:46.629Z,20.03
2019-03-29T09:03:12.430Z,19.33
2019-03-29T09:05:39.425Z,18.37
2019-03-29T09:08:05.503Z,19.17
2019-03-29T09:10:31.291Z,18.03
2019-03-29T09:12:57.088Z,18.30
2019-03-29T09:15:22.882Z,18.00
2019-03-29T09:17:48.672Z,18.30
2019-03-29T09:20:14.460Z,18.10
2019-03-29T09:22:40.260Z,17.53
2019-03-29T09:25:06.158Z,17.07
2019-03-29T09:27:32.346Z,18.20
2019-03-29T09:29:58.155Z,18.53
2019-03-29T09:32:23.951Z,17.63
2019-03-29T09:34:49.729Z,17.73
2019-03-29T09:37:15.528Z,18.07
2019-03-29T09:39:41.308Z,18.47
2019-03-29T09:42:09.543Z,18.00
2019-03-29T09:44:34.817Z,17.53
2019-03-29T09:47:00.619Z,18.77
2019-03-29T09:49:26.410Z,18.40
2019-03-29T09:51:52.218Z,18.33
2019-03-29T09:54:20.385Z,17.50
2019-03-29T09:56:48.401Z,17.10
2019-03-29T09:59:16.277Z,16.97
2019-03-29T10:01:41.088Z,16.40
2019-03-29T10:04:06.890Z,16.37
2019-03-29T10:06:32.690Z,15.97
2019-03-29T10:08:58.467Z,17.53
2019-03-29T10:11:24.275Z,17.10
2019-03-29T10:13:50.065Z,17.77
2019-03-29T10:16:15.873Z,17.10
2019-03-29T10:18:41.688Z,16.60
2019-03-29T10:21:07.598Z,17.63
2019-03-29T10:23:33.394Z,16.87
2019-03-29T10:25:59.219Z,17.93
2019-03-29T10:28:25.041Z,17.47
2019-03-29T10:30:50.890Z,20.23
2019-03-29T10:33:16.695Z,19.17
2019-03-29T10:35:51.547Z,20.03
2019-03-29T10:38:10.183Z,18.50
2019-03-29T10:40:35.995Z,17.47
2019-03-29T10:43:01.811Z,17.53
2019-03-29T10:45:27.614Z,18.97
2019-03-29T10:47:53.407Z,19.13
2019-03-29T10:50:19.211Z,17.60
2019-03-29T10:52:45.080Z,18.73
2019-03-29T10:55:10.865Z,18.90
2019-03-29T10:57:36.660Z,18.43
2019-03-29T11:00:05.649Z,19.73
2019-03-29T11:02:31.454Z,19.80
2019-03-29T11:04:57.235Z,18.57
2019-03-29T11:07:23.019Z,18.33
2019-03-29T11:09:48.799Z,18.10
2019-03-29T11:12:14.583Z,17.60
2019-03-29T11:14:40.369Z,18.63
2019-03-29T11:17:06.162Z,16.50
2019-03-29T11:19:31.961Z,17.83
2019-03-29T11:21:57.820Z,17.47
2019-03-29T11:24:23.708Z,17.23
2019-03-29T11:26:49.547Z,18.03
2019-03-29T11:29:15.336Z,18.47
2019-03-29T11:31:41.115Z,18.37
2019-03-29T11:34:06.919Z,18.50
2019-03-29T11:36:32.860Z,18.43
2019-03-29T11:38:58.661Z,18.20
2019-03-29T11:41:24.442Z,19.23
2019-03-29T11:43:50.232Z,18.17
2019-03-29T11:46:16.012Z,17.57
2019-03-29T11:48:41.816Z,18.17
2019-03-29T11:51:18.655Z,18.70
2019-03-29T11:53:35.430Z,19.00
2019-03-29T11:56:01.241Z,18.97
2019-03-29T11:58:27.046Z,18.47
2019-03-29T12:00:52.847Z,19.47
2019-03-29T12:03:18.643Z,20.30
2019-03-29T12:05:44.452Z,20.47
2019-03-29T12:08:10.247Z,19.07
2019-03-29T12:10:36.052Z,19.67
2019-03-29T12:13:01.836Z,20.53
2019-03-29T12:15:27.684Z,20.30
2019-03-29T12:17:53.468Z,19.03
2019-03-29T12:20:19.266Z,20.67
2019-03-29T12:22:45.058Z,18.47
2019-03-29T12:25:10.853Z,18.77
2019-03-29T12:27:37.463Z,19.07
2019-03-29T12:30:05.265Z,18.63
2019-03-29T12:32:31.054Z,19.87
2019-03-29T12:34:56.847Z,20.63
2019-03-29T12:37:22.649Z,19.67
2019-03-29T12:39:48.455Z,19.83
2019-03-29T12:42:14.230Z,19.53
2019-03-29T12:44:40.287Z,19.37
2019-03-29T12:47:06.074Z,20.37
2019-03-29T12:49:31.873Z,19.03
2019-03-29T12:51:57.677Z,19.03
2019-03-29T12:54:23.459Z,19.53
2019-03-29T12:56:49.247Z,19.13
2019-03-29T12:59:15.136Z,18.40
2019-03-29T13:01:40.942Z,19.87
2019-03-29T13:04:09.591Z,18.53
2019-03-29T13:06:34.506Z,20.53
2019-03-29T13:09:00.319Z,20.33
2019-03-29T13:11:26.114Z,18.90
2019-03-29T13:13:51.892Z,20.53
2019-03-29T13:16:17.682Z,20.10
2019-03-29T13:18:43.482Z,19.63
2019-03-29T13:21:09.283Z,20.40
2019-03-29T13:23:35.051Z,20.23
2019-03-29T13:26:02.589Z,19.93
2019-03-29T13:28:28.478Z,19.97
2019-03-29T13:30:54.271Z,20.17
2019-03-29T13:33:20.642Z,20.97
2019-03-29T13:35:46.658Z,21.13
2019-03-29T13:38:12.503Z,22.03
2019-03-29T13:40:38.299Z,21.67
2019-03-29T13:43:04.096Z,22.20
2019-03-29T13:45:29.999Z,21.87
2019-03-29T13:47:55.844Z,23.27
2019-03-29T13:50:21.642Z,23.57
2019-03-29T13:52:47.508Z,21.87
2019-03-29T13:55:13.840Z,22.07
2019-03-29T13:57:39.615Z,22.50
2019-03-29T14:00:08.310Z,22.83
2019-03-29T14:02:34.099Z,22.83
2019-03-29T14:04:59.876Z,22.87
2019-03-29T14:07:25.665Z,22.63
2019-03-29T14:09:51.463Z,22.40
2019-03-29T14:12:17.263Z,22.90
2019-03-29T14:14:43.049Z,23.83
2019-03-29T14:17:08.850Z,24.23
2019-03-29T14:19:34.627Z,22.43
2019-03-29T14:22:00.419Z,22.67
2019-03-29T14:24:26.224Z,23.57
2019-03-29T14:26:52.058Z,22.47
2019-03-29T14:29:17.838Z,22.83
2019-03-29T14:31:43.645Z,23.57
2019-03-29T14:34:09.512Z,22.07
2019-03-29T14:36:35.267Z,22.20
2019-03-29T14:39:01.051Z,22.87
2019-03-29T14:41:26.830Z,24.10
2019-03-29T14:43:52.622Z,22.00
2019-03-29T14:46:18.430Z,22.20
2019-03-29T14:48:44.253Z,23.20
2019-03-29T14:51:10.392Z,23.33
2019-03-29T14:53:36.143Z,24.07
2019-03-29T14:56:01.995Z,24.07
2019-03-29T14:58:27.785Z,23.57
2019-03-29T15:00:53.564Z,21.93
2019-03-29T15:03:19.546Z,23.60
2019-03-29T15:05:45.326Z,22.50
2019-03-29T15:08:11.135Z,23.70
2019-03-29T15:10:36.907Z,23.13
2019-03-29T15:13:02.819Z,22.27
2019-03-29T15:15:28.592Z,23.03
2019-03-29T15:17:54.382Z,23.30
2019-03-29T15:20:21.210Z,23.87
2019-03-29T15:22:47.002Z,22.17
2019-03-29T15:25:12.787Z,23.17
2019-03-29T15:27:38.602Z,23.83
2019-03-29T15:30:05.922Z,24.13
2019-03-29T15:32:31.712Z,23.93
2019-03-29T15:34:57.519Z,24.20
2019-03-29T15:37:23.314Z,26.40
2019-03-29T15:39:49.107Z,27.37
2019-03-29T15:42:14.893Z,27.27
2019-03-29T15:44:40.733Z,27.40
2019-03-29T15:47:06.499Z,28.47
2019-03-29T15:49:32.301Z,28.97
2019-03-29T15:51:58.086Z,28.93
2019-03-29T15:54:23.881Z,29.60
2019-03-29T15:56:49.679Z,29.70
2019-03-29T15:59:15.470Z,29.73
2019-03-29T16:01:41.256Z,30.13
2019-03-29T16:04:07.055Z,30.23
2019-03-29T16:06:32.850Z,31.40
2019-03-29T16:08:58.643Z,31.17
2019-03-29T16:11:24.431Z,30.30
2019-03-29T16:13:50.311Z,31.07
2019-03-29T16:16:16.106Z,30.70
2019-03-29T16:18:41.908Z,29.60
2019-03-29T16:21:07.712Z,31.63
2019-03-29T16:23:33.726Z,30.73
2019-03-29T16:25:59.536Z,30.47
2019-03-29T16:28:25.832Z,30.70
2019-03-29T16:30:51.632Z,31.23
2019-03-29T16:33:17.575Z,29.63
2019-03-29T16:35:43.375Z,28.33
2019-03-29T16:38:09.156Z,31.13
2019-03-29T16:40:34.970Z,29.33
2019-03-29T16:43:00.763Z,28.53
2019-03-29T16:45:26.555Z,29.97
2019-03-29T16:47:52.339Z,29.13
2019-03-29T16:50:18.458Z,28.63
2019-03-29T16:52:44.222Z,28.57
2019-03-29T16:55:13.763Z,29.13
2019-03-29T16:57:37.739Z,28.93
2019-03-29T17:00:12.016Z,29.87
2019-03-29T17:02:36.485Z,28.50
2019-03-29T17:05:04.070Z,29.13
2019-03-29T17:07:30.121Z,28.80
2019-03-29T17:09:55.916Z,28.83
2019-03-29T17:12:21.707Z,29.50
2019-03-29T17:14:47.518Z,30.07
2019-03-29T17:17:13.300Z,30.50
2019-03-29T17:19:39.099Z,28.83
2019-03-29T17:22:05.339Z,30.17
2019-03-29T17:24:31.401Z,31.73
2019-03-29T17:26:57.221Z,30.50
2019-03-29T17:29:23.023Z,30.93
2019-03-29T17:31:48.862Z,31.70
2019-03-29T17:34:14.647Z,31.37
2019-03-29T17:36:40.445Z,32.97
2019-03-29T17:39:06.372Z,31.10
2019-03-29T17:41:32.155Z,32.57
2019-03-29T17:43:57.941Z,31.80
2019-03-29T17:46:23.744Z,32.63
2019-03-29T17:48:49.526Z,33.40
2019-03-29T17:51:15.329Z,34.40
2019-03-29T17:53:41.119Z,33.07
2019-03-29T17:56:06.922Z,34.80
2019-03-29T17:58:32.694Z,34.60
2019-03-29T18:00:58.484Z,35.37
2019-03-29T18:03:24.275Z,35.03
2019-03-29T18:05:50.068Z,34.97
2019-03-29T18:08:15.879Z,35.37
2019-03-29T18:10:41.757Z,38.60
2019-03-29T18:13:07.555Z,36.77
2019-03-29T18:15:33.375Z,37.13
2019-03-29T18:17:59.168Z,36.60
2019-03-29T18:20:24.956Z,38.43
2019-03-29T18:22:50.754Z,39.00
2019-03-29T18:25:16.547Z,36.70
2019-03-29T18:27:42.365Z,36.57
2019-03-29T18:30:09.848Z,39.40
2019-03-29T18:32:35.762Z,39.93
2019-03-29T18:35:02.867Z,40.00
2019-03-29T18:37:28.660Z,40.57
2019-03-29T18:39:55.274Z,42.93
2019-03-29T18:42:21.158Z,43.23
2019-03-29T18:44:47.132Z,41.37
2019-03-29T18:47:12.946Z,41.13
2019-03-29T18:49:38.725Z,42.40
2019-03-29T18:52:04.520Z,43.57
2019-03-29T18:54:30.312Z,42.80
2019-03-29T18:56:56.104Z,44.07
2019-03-29T18:59:21.893Z,47.23
2019-03-29T19:01:47.701Z,43.57
2019-03-29T19:04:13.480Z,43.67
2019-03-29T19:06:39.290Z,43.60
2019-03-29T19:09:05.085Z,46.30
2019-03-29T19:11:30.882Z,48.80
2019-03-29T19:13:56.675Z,44.60
2019-03-29T19:16:22.486Z,43.47
2019-03-29T19:18:48.274Z,45.83
2019-03-29T19:21:14.071Z,43.50
2019-03-29T19:23:39.862Z,45.97
2019-03-29T19:26:05.660Z,44.97
2019-03-29T19:28:31.463Z,46.83
2019-03-29T19:30:57.249Z,44.23
2019-03-29T19:33:27.522Z,41.33
2019-03-29T19:35:53.303Z,45.23
2019-03-29T19:38:19.103Z,44.57
2019-03-29T19:40:44.890Z,47.77
2019-03-29T19:43:10.702Z,48.33
2019-03-29T19:45:36.479Z,47.60
2019-03-29T19:48:02.325Z,48.47
2019-03-29T19:50:28.177Z,48.33
2019-03-29T19:52:53.930Z,48.43
2019-03-29T19:55:19.777Z,48.93
2019-03-29T19:57:46.625Z,46.83
2019-03-29T20:00:13.396Z,50.23
2019-03-29T20:02:39.268Z,53.10
2019-03-29T20:05:08.900Z,48.33
2019-03-29T20:07:34.672Z,49.03
2019-03-29T20:10:00.470Z,50.53
2019-03-29T20:12:26.262Z,50.20
2019-03-29T20:14:52.063Z,50.47
2019-03-29T20:17:27.462Z,49.90
2019-03-29T20:19:45.563Z,50.67
2019-03-29T20:22:11.362Z,53.00
2019-03-29T20:24:37.156Z,62.00
2019-03-29T20:27:02.959Z,64.43
2019-03-29T20:29:28.759Z,56.70
2019-03-29T20:31:54.546Z,53.67
2019-03-29T20:34:20.366Z,54.37
2019-03-29T20:36:46.143Z,53.83
2019-03-29T20:39:11.916Z,54.60
2019-03-29T20:41:37.714Z,52.30
2019-03-29T20:44:03.501Z,55.63
2019-03-29T20:46:29.295Z,55.47
2019-03-29T20:48:55.080Z,56.43
2019-03-29T20:51:20.885Z,56.90
2019-03-29T20:53:46.687Z,59.27
2019-03-29T20:56:12.499Z,61.57
2019-03-29T20:58:38.274Z,57.07
2019-03-29T21:01:04.070Z,57.13
2019-03-29T21:03:29.866Z,56.00
2019-03-29T21:05:55.656Z,58.40
2019-03-29T21:08:21.430Z,55.57
2019-03-29T21:10:55.478Z,56.50
2019-03-29T21:13:14.917Z,55.83
2019-03-29T21:15:40.728Z,56.17
2019-03-29T21:18:06.510Z,53.43
2019-03-29T21:20:32.307Z,55.27
2019-03-29T21:22:58.098Z,52.50
2019-03-29T21:25:23.909Z,52.83
2019-03-29T21:27:49.718Z,50.93
2019-03-29T21:30:16.117Z,52.60
2019-03-29T21:32:41.915Z,52.40
2019-03-29T21:35:08.013Z,49.87
2019-03-29T21:37:34.827Z,51.57
2019-03-29T21:40:00.609Z,51.57
2019-03-29T21:42:26.394Z,51.67
2019-03-29T21:44:52.183Z,52.03
2019-03-29T21:47:17.979Z,52.20
2019-03-29T21:49:43.799Z,52.33
2019-03-29T21:52:09.567Z,53.33
2019-03-29T21:54:35.363Z,52.17
2019-03-29T21:57:01.152Z,50.97
2019-03-29T21:59:26.934Z,51.77
2019-03-29T22:01:52.730Z,51.37
2019-03-29T22:04:18.516Z,48.87
2019-03-29T22:06:44.330Z,50.73
2019-03-29T22:09:10.126Z,50.77
2019-03-29T22:11:35.917Z,51.93
2019-03-29T22:14:01.700Z,50.93
2019-03-29T22:16:27.506Z,54.67
2019-03-29T22:18:53.317Z,50.37
2019-03-29T22:21:19.095Z,48.43
2019-03-29T22:23:44.886Z,49.17
2019-03-29T22:26:10.666Z,50.73
2019-03-29T22:28:36.489Z,54.57
2019-03-29T22:31:02.294Z,50.27
2019-03-29T22:33:28.087Z,51.10
2019-03-29T22:35:53.866Z,51.63
2019-03-29T22:38:19.658Z,50.60
2019-03-29T22:40:45.540Z,48.40
2019-03-29T22:43:11.334Z,51.53
2019-03-29T22:45:37.113Z,48.17
2019-03-29T22:48:02.927Z,49.00
2019-03-29T22:50:28.725Z,51.07
2019-03-29T22:52:54.767Z,50.80
2019-03-29T22:55:20.608Z,51.53
2019-03-29T22:57:46.414Z,48.80
2019-03-29T23:00:21.452Z,49.80
2019-03-29T23:02:47.259Z,49.20
2019-03-29T23:05:13.035Z,50.20
2019-03-29T23:07:38.825Z,48.77
2019-03-29T23:10:04.822Z,50.40
2019-03-29T23:12:30.710Z,52.70
2019-03-29T23:14:56.498Z,47.73
2019-03-29T23:17:22.282Z,48.70
2019-03-29T23:19:48.097Z,48.27
2019-03-29T23:22:13.904Z,47.23
2019-03-29T23:24:39.705Z,47.83
2019-03-29T23:27:05.544Z,48.03
2019-03-29T23:29:31.331Z,46.90
2019-03-29T23:31:57.111Z,49.03
2019-03-29T23:34:22.911Z,48.83
2019-03-29T23:36:48.710Z,48.83
2019-03-29T23:39:14.504Z,49.37
2019-03-29T23:41:40.303Z,48.67
2019-03-29T23:44:06.089Z,48.60
2019-03-29T23:46:31.879Z,51.97
2019-03-29T23:48:57.667Z,46.20
2019-03-29T23:51:23.460Z,47.47
2019-03-29T23:53:49.257Z,45.47
2019-03-29T23:56:15.065Z,45.80
2019-03-29T23:58:40.870Z,47.17
